AAL1369 KMIA-MNMG
Flight info
| Callsign | AAL1369 |
|---|---|
| Flight time | N/A |
| Altitude | 35000 |
| Route | MAYNR3 FUNDI UM335 ALVEK UM328 PERMO/N0461F370 UM328 RAKEL RAKEL1A |
| Aircraft | B738/M-SDE2E3FGHIRWXY/LB1 |
Departure
| Time | 2026-04-30 22:40 |
|---|---|
| Airport | Miami International Airport (KMIA) |
Arrival
| Time | N/A |
|---|---|
| Airport | Augusto C. Sandino (Managua) International Airport (MNMG) |
| Time | Latitude | Longitude | Altitude | Speed | Heading |
|---|---|---|---|---|---|
| 2026-04-30 22:11 | 25.79730 | -80.28449 | 15 ft | 0 kts | 358° |
| 2026-04-30 22:31 | 25.79675 | -80.28439 | 14 ft | 4 kts | 297° |
| 2026-04-30 22:32 | 25.79670 | -80.28406 | 14 ft | 0 kts | 268° |
| 2026-04-30 22:33 | 25.79670 | -80.28408 | 14 ft | 2 kts | 268° |
| 2026-04-30 22:34 | 25.79647 | -80.28669 | 16 ft | 16 kts | 266° |
| 2026-04-30 22:35 | 25.79745 | -80.28818 | 15 ft | 15 kts | 357° |
| 2026-04-30 22:36 | 25.80009 | -80.28974 | 15 ft | 13 kts | 268° |
| 2026-04-30 22:36 | 25.80005 | -80.29072 | 15 ft | 13 kts | 267° |
| 2026-04-30 22:37 | 25.79992 | -80.29386 | 16 ft | 13 kts | 271° |
| 2026-04-30 22:37 | 25.79990 | -80.29485 | 13 ft | 13 kts | 265° |
| 2026-04-30 22:37 | 25.79980 | -80.29687 | 13 ft | 16 kts | 266° |
| 2026-04-30 22:38 | 25.79972 | -80.29939 | 12 ft | 16 kts | 278° |
| 2026-04-30 22:38 | 25.80062 | -80.30128 | 14 ft | 15 kts | 23° |
| 2026-04-30 22:39 | 25.80074 | -80.30072 | 12 ft | 1 kts | 88° |
| 2026-04-30 22:39 | 25.80162 | -80.28057 | 40 ft | 168 kts | 88° |
| 2026-04-30 22:40 | 25.79124 | -80.24422 | 1584 ft | 199 kts | 140° |
| 2026-04-30 22:41 | 25.75414 | -80.20860 | 2677 ft | 259 kts | 140° |
| 2026-04-30 22:41 | 25.72232 | -80.19132 | 4109 ft | 265 kts | 175° |
| 2026-04-30 22:42 | 25.64600 | -80.19336 | 6849 ft | 284 kts | 190° |
| 2026-04-30 22:43 | 25.60784 | -80.20418 | 8235 ft | 285 kts | 212° |
| 2026-04-30 22:43 | 25.57313 | -80.22657 | 9534 ft | 292 kts | 212° |
| 2026-04-30 22:44 | 25.53720 | -80.24971 | 10444 ft | 314 kts | 212° |
| 2026-04-30 22:45 | 25.45281 | -80.30332 | 11425 ft | 373 kts | 212° |
| 2026-04-30 22:45 | 25.40750 | -80.33186 | 12601 ft | 377 kts | 212° |
| 2026-04-30 22:46 | 25.36150 | -80.36082 | 13744 ft | 383 kts | 212° |
| 2026-04-30 22:47 | 25.26750 | -80.41998 | 16015 ft | 396 kts | 212° |
| 2026-04-30 22:47 | 25.22701 | -80.44431 | 16891 ft | 404 kts | 205° |
| 2026-04-30 22:48 | 25.17272 | -80.46277 | 17915 ft | 412 kts | 198° |
| 2026-04-30 22:49 | 25.08884 | -80.48848 | 19307 ft | 421 kts | 199° |
| 2026-04-30 22:49 | 25.00350 | -80.51617 | 20589 ft | 430 kts | 199° |
| 2026-04-30 22:50 | 24.88768 | -80.55401 | 22079 ft | 441 kts | 199° |
| 2026-04-30 22:51 | 24.82984 | -80.57676 | 22687 ft | 441 kts | 216° |
| 2026-04-30 22:51 | 24.78933 | -80.62567 | 23362 ft | 434 kts | 240° |
| 2026-04-30 22:52 | 24.77327 | -80.65391 | 23665 ft | 436 kts | 240° |
| 2026-04-30 22:52 | 24.74115 | -80.71107 | 24174 ft | 442 kts | 240° |
| 2026-04-30 22:53 | 24.70820 | -80.76853 | 24702 ft | 446 kts | 240° |
| 2026-04-30 22:53 | 24.67462 | -80.82629 | 25210 ft | 450 kts | 240° |
| 2026-04-30 22:53 | 24.65791 | -80.85497 | 25463 ft | 452 kts | 240° |
| 2026-04-30 22:54 | 24.62388 | -80.91339 | 25985 ft | 456 kts | 240° |
| 2026-04-30 22:55 | 24.56508 | -80.99582 | 26659 ft | 471 kts | 214° |
| 2026-04-30 22:55 | 24.50289 | -81.01786 | 27142 ft | 484 kts | 184° |
| 2026-04-30 22:56 | 24.43563 | -81.01667 | 27800 ft | 483 kts | 180° |
| 2026-04-30 22:56 | 24.33408 | -81.01471 | 28392 ft | 489 kts | 181° |
| 2026-04-30 22:57 | 24.26577 | -81.01410 | 28821 ft | 492 kts | 181° |
| 2026-04-30 22:57 | 24.19702 | -81.01360 | 29235 ft | 494 kts | 181° |
| 2026-04-30 22:58 | 24.12861 | -81.01305 | 29758 ft | 494 kts | 181° |
| 2026-04-30 22:59 | 24.02579 | -81.01221 | 30621 ft | 492 kts | 181° |
| 2026-04-30 22:59 | 23.92326 | -81.00943 | 31579 ft | 489 kts | 178° |